Dubai Fortune — H9SA — position and weather

sailwx.info

Track history (hours):
 
Tides and Currents Weather Stations Pressure Air Temp Water Temp Dewpoint Dewpoint Depression Visibility Wind Speed Wind Dir Waves Ship Positions

Dubai Fortune

Last reported at 2016-Jun-08 07:33 UTC. Time now 2016-Jun-29 16:28 UTC.
Position N 01°59' E 102°14'.
Warning: this ship's position is 21 days out of date.

Length 188 m; draft 11.6 m.

Type: Cargo ship. MMSI: 353316000.

Date/timePositionNaut miles runAvg speedWind from/ knotsBaromVisibWave heightAir tempDewpointWater temp
2016-Jun-08 07:33N 01°59' E 102°14'1212.1
2016-Jun-08 06:33N 01°53' E 102°24'1211.5
2016-Jun-08 05:28N 01°48' E 102°36'7510.7
2016-Jun-07 22:29N 01°11' E 103°40'8 8.0
2016-Jun-07 21:33N 01°11' E 103°48'8 7.7
2016-Jun-07 20:33N 01°14' E 103°55'10 9.6
2016-Jun-07 19:30N 01°16' E 104°05'  
2016-Jun-01 21:16N 23°37' E 117°53'7 9.4
2016-Jun-01 20:29N 23°41' E 117°59'19 9.7
2016-Jun-01 18:31N 23°53' E 118°15'1010.1
2016-Jun-01 17:29N 23°60' E 118°24'1010.4
2016-Jun-01 16:31N 24°06' E 118°33'2110.7
2016-Jun-01 14:33N 24°19' E 118°51'2310.3
2016-Jun-01 12:18N 24°34' E 119°10'  
Track history (hours):
 
Tides and Currents Weather Stations Pressure Air Temp Water Temp Dewpoint Dewpoint Depression Visibility Wind Speed Wind Dir Waves Ship Positions

Dubai Fortune

Last reported at 2016-Jun-08 07:33 UTC. Time now 2016-Jun-29 16:28 UTC.
Position N 01°59' E 102°14'.
Warning: this ship's position is 21 days out of date.

Length 188 m; draft 11.6 m.

Type: Cargo ship. MMSI: 353316000.

Date/timePositionNaut miles runAvg speedWind from/ knotsBaromVisibWave heightAir tempDewpointWater temp
2016-Jun-08 07:33N 01°59' E 102°14'1212.1
2016-Jun-08 06:33N 01°53' E 102°24'1211.5
2016-Jun-08 05:28N 01°48' E 102°36'7510.7
2016-Jun-07 22:29N 01°11' E 103°40'8 8.0
2016-Jun-07 21:33N 01°11' E 103°48'8 7.7
2016-Jun-07 20:33N 01°14' E 103°55'10 9.6
2016-Jun-07 19:30N 01°16' E 104°05'  
2016-Jun-01 21:16N 23°37' E 117°53'7 9.4
2016-Jun-01 20:29N 23°41' E 117°59'19 9.7
2016-Jun-01 18:31N 23°53' E 118°15'1010.1
2016-Jun-01 17:29N 23°60' E 118°24'1010.4
2016-Jun-01 16:31N 24°06' E 118°33'2110.7
2016-Jun-01 14:33N 24°19' E 118°51'2310.3
2016-Jun-01 12:18N 24°34' E 119°10'  

Dump ship's entire track history